createdAt,value
2023-01-08T00:01:14.988Z,5.20
2023-01-08T00:03:45.387Z,5.10
2023-01-08T00:06:17.951Z,5.20
2023-01-08T00:08:47.655Z,5.20
2023-01-08T00:11:24.323Z,5.20
2023-01-08T00:13:52.562Z,5.20
2023-01-08T00:16:21.731Z,5.20
2023-01-08T00:18:50.205Z,5.20
2023-01-08T00:21:21.157Z,5.20
2023-01-08T00:23:49.508Z,5.10
2023-01-08T00:26:20.384Z,5.20
2023-01-08T00:28:49.274Z,5.20
2023-01-08T00:31:18.794Z,5.20
2023-01-08T00:33:48.229Z,5.10
2023-01-08T00:36:26.315Z,5.10
2023-01-08T00:39:02.727Z,5.10
2023-01-08T00:41:30.320Z,5.10
2023-01-08T00:44:00.808Z,5.10
2023-01-08T00:46:30.455Z,5.10
2023-01-08T00:48:59.370Z,5.10
2023-01-08T00:51:29.763Z,4.90
2023-01-08T00:54:02.057Z,4.80
2023-01-08T00:56:29.524Z,4.80
2023-01-08T00:59:00.628Z,4.80
2023-01-08T01:01:29.228Z,4.80
2023-01-08T01:03:59.663Z,4.80
2023-01-08T01:06:27.293Z,4.90
2023-01-08T01:09:05.118Z,4.90
2023-01-08T01:11:32.374Z,4.80
2023-01-08T01:13:59.350Z,4.90
2023-01-08T01:16:26.688Z,4.90
2023-01-08T01:18:57.391Z,5.00
2023-01-08T01:21:30.641Z,5.00
2023-01-08T01:24:03.427Z,5.00
2023-01-08T01:26:32.132Z,5.00
2023-01-08T01:29:01.252Z,5.00
2023-01-08T01:31:31.370Z,4.90
2023-01-08T01:34:02.189Z,4.90
2023-01-08T01:36:32.356Z,4.80
2023-01-08T01:39:02.480Z,4.80
2023-01-08T01:41:33.231Z,4.80
2023-01-08T01:44:54.154Z,4.80
2023-01-08T01:47:30.669Z,4.80
2023-01-08T01:50:45.606Z,4.90
2023-01-08T01:53:27.294Z,4.90
2023-01-08T01:55:56.995Z,4.90
2023-01-08T01:58:29.741Z,4.90
2023-01-08T02:01:04.740Z,4.90
2023-01-08T02:03:40.123Z,4.90
2023-01-08T02:06:35.264Z,4.90
2023-01-08T02:09:23.293Z,4.80
2023-01-08T02:12:25.396Z,4.80
2023-01-08T02:15:23.457Z,4.80
2023-01-08T02:18:16.528Z,4.80
2023-01-08T02:20:54.565Z,4.70
2023-01-08T02:23:56.267Z,4.70
2023-01-08T02:26:34.493Z,4.80
2023-01-08T02:29:23.641Z,4.70
2023-01-08T02:31:52.337Z,4.70
2023-01-08T02:34:22.752Z,4.70
2023-01-08T02:36:59.684Z,4.80
2023-01-08T02:40:02.450Z,4.70
2023-01-08T02:42:49.608Z,4.70
2023-01-08T02:45:41.362Z,4.60
2023-01-08T02:48:29.842Z,4.60
2023-01-08T02:51:22.640Z,4.50
2023-01-08T02:54:06.516Z,4.50
2023-01-08T02:56:41.188Z,4.50
2023-01-08T02:59:15.890Z,4.60
2023-01-08T03:01:48.253Z,4.70
2023-01-08T03:04:21.392Z,4.60
2023-01-08T03:06:50.625Z,4.50
2023-01-08T03:09:21.674Z,4.50
2023-01-08T03:12:17.829Z,4.50
2023-01-08T03:14:52.730Z,4.50
2023-01-08T03:17:33.149Z,4.50
2023-01-08T03:20:06.806Z,4.50
2023-01-08T03:22:41.287Z,4.40
2023-01-08T03:25:10.280Z,4.50
2023-01-08T03:27:43.128Z,4.50
2023-01-08T03:30:11.746Z,4.50
2023-01-08T03:32:43.361Z,4.50
2023-01-08T03:35:20.797Z,4.50
2023-01-08T03:38:04.620Z,4.50
2023-01-08T03:40:42.460Z,4.60
2023-01-08T03:43:13.233Z,4.50
2023-01-08T03:45:47.792Z,4.50
2023-01-08T03:48:18.730Z,4.50
2023-01-08T03:50:48.921Z,4.40
2023-01-08T03:53:16.393Z,4.50
2023-01-08T03:55:47.966Z,4.50
2023-01-08T03:58:18.817Z,4.50
2023-01-08T04:00:48.307Z,4.50
2023-01-08T04:03:16.661Z,4.40
2023-01-08T04:05:48.368Z,4.40
2023-01-08T04:08:16.583Z,4.40
2023-01-08T04:10:45.016Z,4.40
2023-01-08T04:13:11.949Z,4.40
2023-01-08T04:15:41.970Z,4.30
2023-01-08T04:18:11.316Z,4.40
2023-01-08T04:20:41.693Z,4.40
2023-01-08T04:23:11.539Z,4.40
2023-01-08T04:25:42.098Z,4.40
2023-01-08T04:28:12.079Z,4.40
2023-01-08T04:30:42.680Z,4.40
2023-01-08T04:33:11.687Z,4.40
2023-01-08T04:35:49.114Z,4.30
2023-01-08T04:38:17.451Z,4.30
2023-01-08T04:40:47.115Z,4.20
2023-01-08T04:43:15.541Z,4.30
2023-01-08T04:45:48.524Z,4.30
2023-01-08T04:48:16.511Z,4.30
2023-01-08T04:50:47.422Z,4.20
2023-01-08T04:53:17.620Z,4.10
2023-01-08T04:55:47.941Z,4.20
2023-01-08T04:58:15.400Z,4.20
2023-01-08T05:00:42.589Z,4.20
2023-01-08T05:03:12.949Z,4.20
2023-01-08T05:05:44.098Z,4.20
2023-01-08T05:08:14.431Z,4.30
2023-01-08T05:10:44.674Z,4.30
2023-01-08T05:13:14.448Z,4.20
2023-01-08T05:15:43.946Z,4.30
2023-01-08T05:18:13.462Z,4.20
2023-01-08T05:20:50.043Z,4.10
2023-01-08T05:23:17.208Z,4.20
2023-01-08T05:25:44.268Z,4.20
2023-01-08T05:28:11.705Z,4.20
2023-01-08T05:30:39.307Z,4.20
2023-01-08T05:33:07.354Z,4.30
2023-01-08T05:35:34.458Z,4.20
2023-01-08T05:38:03.242Z,4.20
2023-01-08T05:40:33.718Z,4.20
2023-01-08T05:43:05.015Z,4.10
2023-01-08T05:45:33.637Z,4.20
2023-01-08T05:48:04.503Z,4.20
2023-01-08T05:50:34.168Z,4.20
2023-01-08T05:53:05.780Z,4.20
2023-01-08T05:55:37.297Z,4.20
2023-01-08T05:58:09.887Z,4.20
2023-01-08T06:00:42.637Z,4.20
2023-01-08T06:03:12.223Z,4.20
2023-01-08T06:05:41.612Z,4.30
2023-01-08T06:08:13.111Z,4.30
2023-01-08T06:10:42.731Z,4.20
2023-01-08T06:15:54.026Z,4.00
2023-01-08T06:18:20.990Z,4.10
2023-01-08T06:20:48.992Z,4.10
2023-01-08T06:23:19.577Z,4.10
2023-01-08T06:28:39.271Z,4.10
2023-01-08T06:31:07.705Z,4.10
2023-01-08T06:33:37.797Z,4.10
2023-01-08T06:36:06.220Z,4.10
2023-01-08T06:38:58.175Z,4.10
2023-01-08T06:41:28.566Z,4.10
2023-01-08T06:43:58.565Z,4.10
2023-01-08T06:46:29.312Z,4.00
2023-01-08T06:48:59.800Z,4.00
2023-01-08T06:51:28.031Z,4.00
2023-01-08T06:53:55.253Z,4.10
2023-01-08T06:56:24.558Z,4.00
2023-01-08T06:58:51.533Z,4.00
2023-01-08T07:01:23.661Z,4.00
2023-01-08T07:03:54.427Z,4.10
2023-01-08T07:06:24.734Z,4.10
2023-01-08T07:08:51.681Z,4.10
2023-01-08T07:11:23.229Z,4.10
2023-01-08T07:14:02.531Z,4.00
2023-01-08T07:16:33.177Z,4.00
2023-01-08T07:19:00.771Z,4.00
2023-01-08T07:21:31.425Z,4.10
2023-01-08T07:23:59.706Z,4.00
2023-01-08T07:26:26.807Z,4.10
2023-01-08T07:28:55.591Z,4.00
2023-01-08T07:31:25.138Z,4.00
2023-01-08T07:33:54.537Z,3.90
2023-01-08T07:36:23.067Z,3.90
2023-01-08T07:38:51.584Z,3.90
2023-01-08T07:41:21.594Z,3.90
2023-01-08T07:43:49.670Z,3.80
2023-01-08T07:46:17.293Z,3.80
2023-01-08T07:48:47.918Z,3.90
2023-01-08T07:51:17.449Z,3.80
2023-01-08T07:53:45.618Z,3.80
2023-01-08T07:56:13.637Z,3.70
2023-01-08T07:58:41.677Z,3.80
2023-01-08T08:01:11.325Z,3.70
2023-01-08T08:03:42.179Z,3.60
2023-01-08T08:06:12.120Z,3.70
2023-01-08T08:08:42.715Z,3.80
2023-01-08T08:11:21.070Z,3.70
2023-01-08T08:13:52.647Z,3.80
2023-01-08T08:16:21.299Z,3.70
2023-01-08T08:18:50.859Z,3.80
2023-01-08T08:21:18.186Z,3.80
2023-01-08T08:23:48.879Z,3.80
2023-01-08T08:26:20.719Z,3.70
2023-01-08T08:28:48.232Z,3.70
2023-01-08T08:31:18.657Z,3.70
2023-01-08T08:33:48.458Z,3.80
2023-01-08T08:36:17.908Z,3.80
2023-01-08T08:38:47.986Z,3.70
2023-01-08T08:43:59.221Z,3.70
2023-01-08T08:46:27.762Z,3.80
2023-01-08T08:48:55.257Z,3.80
2023-01-08T08:51:25.832Z,3.80
2023-01-08T08:53:54.204Z,3.70
2023-01-08T08:56:22.455Z,3.70
2023-01-08T08:58:59.435Z,3.70
2023-01-08T09:05:59.918Z,3.70
2023-01-08T09:08:28.210Z,3.80
2023-01-08T09:10:56.298Z,3.70
2023-01-08T09:13:24.537Z,3.60
2023-01-08T09:15:55.788Z,3.50
2023-01-08T09:18:24.137Z,3.60
2023-01-08T09:20:51.281Z,3.60
2023-01-08T09:23:21.789Z,3.60
2023-01-08T09:25:50.092Z,3.70
2023-01-08T09:28:17.392Z,3.70
2023-01-08T09:30:45.632Z,3.70
2023-01-08T09:33:16.892Z,3.70
2023-01-08T09:38:30.018Z,3.80
2023-01-08T09:41:09.261Z,3.80
2023-01-08T09:43:46.029Z,3.80
2023-01-08T09:46:17.680Z,3.90
2023-01-08T09:48:58.583Z,3.90
2023-01-08T09:51:36.490Z,3.90
2023-01-08T09:54:07.650Z,3.90
2023-01-08T09:56:47.554Z,3.80
2023-01-08T09:59:17.816Z,3.90
2023-01-08T10:01:47.196Z,3.90
2023-01-08T10:04:24.342Z,3.90
2023-01-08T10:07:32.307Z,4.00
2023-01-08T10:10:00.526Z,4.00
2023-01-08T10:12:36.415Z,4.00
2023-01-08T10:15:16.880Z,4.00
2023-01-08T10:18:05.944Z,4.00
2023-01-08T10:20:36.361Z,4.00
2023-01-08T10:23:18.127Z,4.00
2023-01-08T10:26:03.138Z,4.10
2023-01-08T10:28:35.667Z,4.00
2023-01-08T10:31:16.998Z,4.10
2023-01-08T10:33:51.152Z,4.10
2023-01-08T10:36:23.473Z,4.20
2023-01-08T10:39:00.180Z,4.10
2023-01-08T10:41:28.154Z,4.20
2023-01-08T10:44:06.205Z,4.30
2023-01-08T10:46:48.346Z,4.30
2023-01-08T10:49:33.213Z,4.30
2023-01-08T10:52:01.534Z,4.30
2023-01-08T10:54:40.858Z,4.20
2023-01-08T10:57:28.351Z,4.40
2023-01-08T10:59:56.793Z,4.30
2023-01-08T11:02:38.109Z,4.30
2023-01-08T11:05:11.841Z,4.40
2023-01-08T11:07:40.759Z,4.40
2023-01-08T11:10:26.518Z,4.40
2023-01-08T11:12:59.615Z,4.40
2023-01-08T11:15:32.978Z,4.50
2023-01-08T11:18:18.351Z,4.50
2023-01-08T11:20:47.738Z,4.40
2023-01-08T11:23:26.281Z,4.60
2023-01-08T11:26:20.653Z,4.50
2023-01-08T11:29:26.822Z,4.50
2023-01-08T11:32:18.277Z,4.60
2023-01-08T11:35:06.721Z,4.60
2023-01-08T11:37:45.651Z,4.40
2023-01-08T11:40:42.574Z,4.40
2023-01-08T11:43:30.647Z,4.60
2023-01-08T11:46:23.752Z,4.50
2023-01-08T11:48:55.581Z,4.60
2023-01-08T11:51:52.469Z,4.60
2023-01-08T11:55:11.080Z,4.60
2023-01-08T11:57:49.760Z,4.60
2023-01-08T12:00:49.826Z,4.70
2023-01-08T12:03:47.243Z,4.60
2023-01-08T12:06:46.858Z,4.60
2023-01-08T12:09:33.385Z,4.30
2023-01-08T12:12:41.155Z,4.40
2023-01-08T12:15:55.725Z,4.40
2023-01-08T12:18:43.592Z,4.30
2023-01-08T12:21:33.504Z,4.40
2023-01-08T12:24:21.651Z,4.40
2023-01-08T12:27:48.673Z,4.40
2023-01-08T12:30:26.067Z,4.40
2023-01-08T12:33:05.704Z,4.50
2023-01-08T12:35:40.077Z,4.50
2023-01-08T12:38:32.248Z,4.50
2023-01-08T12:41:20.822Z,4.60
2023-01-08T12:43:59.315Z,4.70
2023-01-08T12:46:41.804Z,4.70
2023-01-08T12:49:18.317Z,4.70
2023-01-08T12:52:12.236Z,4.80
2023-01-08T12:54:58.776Z,4.80
2023-01-08T12:57:38.671Z,4.70
2023-01-08T13:00:33.509Z,4.70
2023-01-08T13:03:12.534Z,4.70
2023-01-08T13:05:46.277Z,4.70
2023-01-08T13:08:37.903Z,4.70
2023-01-08T13:11:06.720Z,4.80
2023-01-08T13:13:37.514Z,4.90
2023-01-08T13:16:19.855Z,4.80
2023-01-08T13:18:58.956Z,4.80
2023-01-08T13:21:59.619Z,4.80
2023-01-08T13:24:46.677Z,4.90
2023-01-08T13:27:31.488Z,4.90
2023-01-08T13:30:02.598Z,4.90
2023-01-08T13:32:52.003Z,4.90
2023-01-08T13:35:34.297Z,4.80
2023-01-08T13:38:19.482Z,4.70
2023-01-08T13:40:50.666Z,4.80
2023-01-08T13:43:40.788Z,4.90
2023-01-08T13:46:19.109Z,4.90
2023-01-08T13:49:06.035Z,4.80
2023-01-08T13:51:54.853Z,4.80
2023-01-08T13:54:45.963Z,4.90
2023-01-08T13:57:26.116Z,4.90
2023-01-08T13:59:59.714Z,5.00
2023-01-08T14:05:39.776Z,4.90
2023-01-08T14:08:22.064Z,5.10
2023-01-08T14:10:51.044Z,5.10
2023-01-08T14:13:29.151Z,5.00
2023-01-08T14:16:01.616Z,5.00
2023-01-08T14:18:32.027Z,5.10
2023-01-08T14:20:59.260Z,5.20
2023-01-08T14:23:36.286Z,5.10
2023-01-08T14:26:10.903Z,5.10
2023-01-08T14:28:39.293Z,5.10
2023-01-08T14:31:22.063Z,5.10
2023-01-08T14:33:53.185Z,5.20
2023-01-08T14:36:21.764Z,5.10
2023-01-08T14:38:52.424Z,5.20
2023-01-08T14:42:01.898Z,5.20
2023-01-08T14:44:38.082Z,5.20
2023-01-08T14:47:19.903Z,5.20
2023-01-08T14:49:54.285Z,5.20
2023-01-08T14:52:23.163Z,5.20
2023-01-08T14:54:56.941Z,5.20
2023-01-08T14:57:28.082Z,5.10
2023-01-08T14:59:59.285Z,5.20
2023-01-08T15:02:40.010Z,5.10
2023-01-08T15:05:26.953Z,5.10
2023-01-08T15:08:31.659Z,5.20
2023-01-08T15:11:16.177Z,5.10
2023-01-08T15:13:44.759Z,5.20
2023-01-08T15:16:18.073Z,5.20
2023-01-08T15:18:48.930Z,5.10
2023-01-08T15:21:23.052Z,5.10
2023-01-08T15:24:00.220Z,5.10
2023-01-08T15:26:28.509Z,5.20
2023-01-08T15:29:02.856Z,5.20
2023-01-08T15:31:40.486Z,5.20
2023-01-08T15:34:11.375Z,5.10
2023-01-08T15:36:42.369Z,5.20
2023-01-08T15:39:11.150Z,5.20
2023-01-08T15:42:00.632Z,5.20
2023-01-08T15:44:28.583Z,5.20
2023-01-08T15:46:56.807Z,5.40
2023-01-08T15:49:28.949Z,5.30
2023-01-08T15:51:56.240Z,5.30
2023-01-08T15:54:28.337Z,5.30
2023-01-08T15:56:58.842Z,5.30
2023-01-08T15:59:28.661Z,5.30
2023-01-08T16:01:58.867Z,5.30
2023-01-08T16:04:27.376Z,5.30
2023-01-08T16:07:00.594Z,5.30
2023-01-08T16:09:28.173Z,5.20
2023-01-08T16:11:59.261Z,5.20
2023-01-08T16:14:30.446Z,5.20
2023-01-08T16:16:59.666Z,5.20
2023-01-08T16:19:29.219Z,5.20
2023-01-08T16:22:00.517Z,5.30
2023-01-08T16:24:31.971Z,5.30
2023-01-08T16:27:02.833Z,5.20
2023-01-08T16:29:33.145Z,5.20
2023-01-08T16:32:01.415Z,5.30
2023-01-08T16:34:34.149Z,5.30
2023-01-08T16:37:02.644Z,5.30
2023-01-08T16:39:34.732Z,5.30
2023-01-08T16:42:04.850Z,5.30
2023-01-08T16:44:39.733Z,5.30
2023-01-08T16:47:10.072Z,5.30
2023-01-08T16:52:22.629Z,5.30
2023-01-08T16:54:52.857Z,5.20
2023-01-08T16:57:21.325Z,5.20
2023-01-08T16:59:49.704Z,5.30
2023-01-08T17:02:26.556Z,5.20
2023-01-08T17:04:56.469Z,5.30
2023-01-08T17:07:27.449Z,5.20
2023-01-08T17:10:00.308Z,5.20
2023-01-08T17:12:33.000Z,5.10
2023-01-08T17:15:01.813Z,5.10
2023-01-08T17:17:33.332Z,5.10
2023-01-08T17:20:03.011Z,5.10
2023-01-08T17:22:32.703Z,5.20
2023-01-08T17:25:04.639Z,5.20
2023-01-08T17:27:35.925Z,5.10
2023-01-08T17:30:05.399Z,5.10
2023-01-08T17:32:33.799Z,5.20
2023-01-08T17:35:03.792Z,5.20
2023-01-08T17:37:34.369Z,5.20
2023-01-08T17:40:02.898Z,5.10
2023-01-08T17:42:30.348Z,5.00
2023-01-08T17:45:06.372Z,5.00
2023-01-08T17:47:35.994Z,5.00
2023-01-08T17:50:10.069Z,4.90
2023-01-08T17:52:41.964Z,5.00
2023-01-08T17:55:10.368Z,5.00
2023-01-08T17:57:40.864Z,4.90
2023-01-08T18:00:12.789Z,4.90
2023-01-08T18:02:40.986Z,4.90
2023-01-08T18:05:13.805Z,4.90
2023-01-08T18:07:43.034Z,4.90
2023-01-08T18:10:13.919Z,4.90
2023-01-08T18:12:51.340Z,4.90
2023-01-08T18:15:20.508Z,4.90
2023-01-08T18:17:50.278Z,4.80
2023-01-08T18:20:22.771Z,4.80
2023-01-08T18:22:51.260Z,4.90
2023-01-08T18:25:20.363Z,4.90
2023-01-08T18:30:31.272Z,4.80
2023-01-08T18:33:00.720Z,4.80
2023-01-08T18:35:28.223Z,4.80
2023-01-08T18:38:00.920Z,4.80
2023-01-08T18:40:30.641Z,4.80
2023-01-08T18:42:59.566Z,4.70
2023-01-08T18:48:18.054Z,4.70
2023-01-08T18:50:48.794Z,4.60
2023-01-08T18:53:17.492Z,4.60
2023-01-08T18:55:48.648Z,4.60
2023-01-08T18:58:19.383Z,4.60
2023-01-08T19:00:50.171Z,4.60
2023-01-08T19:03:18.225Z,4.60
2023-01-08T19:05:49.218Z,4.40
2023-01-08T19:08:17.518Z,4.40
2023-01-08T19:10:48.511Z,4.40
2023-01-08T19:13:20.114Z,4.50
2023-01-08T19:15:48.597Z,4.50
2023-01-08T19:18:19.988Z,4.40
2023-01-08T19:20:51.046Z,4.40
2023-01-08T19:23:20.566Z,4.40
2023-01-08T19:25:48.885Z,4.40
2023-01-08T19:28:19.253Z,4.30
2023-01-08T19:30:56.260Z,4.20
2023-01-08T19:33:26.275Z,4.10
2023-01-08T19:35:55.229Z,4.10
2023-01-08T19:38:26.656Z,4.00
2023-01-08T19:41:00.498Z,4.00
2023-01-08T19:43:44.389Z,3.90
2023-01-08T19:46:16.188Z,3.80
2023-01-08T19:48:46.967Z,3.80
2023-01-08T19:51:18.750Z,3.80
2023-01-08T19:53:55.795Z,3.70
2023-01-08T19:59:06.388Z,3.60
2023-01-08T20:01:34.677Z,3.50
2023-01-08T20:04:05.307Z,3.40
2023-01-08T20:09:28.008Z,3.40
2023-01-08T20:12:00.163Z,3.40
2023-01-08T20:14:28.677Z,3.30
2023-01-08T20:17:01.625Z,3.30
2023-01-08T20:19:30.981Z,3.30
2023-01-08T20:22:00.015Z,3.30
2023-01-08T20:24:28.677Z,3.20
2023-01-08T20:27:02.367Z,3.20
2023-01-08T20:29:30.728Z,3.00
2023-01-08T20:32:00.009Z,3.00
2023-01-08T20:34:28.778Z,3.00
2023-01-08T20:37:00.326Z,3.00
2023-01-08T20:39:29.443Z,2.90
2023-01-08T20:42:04.405Z,2.90
2023-01-08T20:44:36.199Z,2.90
2023-01-08T20:47:06.525Z,2.90
2023-01-08T20:49:36.834Z,2.80
2023-01-08T20:52:05.087Z,2.80
2023-01-08T20:54:36.282Z,2.70
2023-01-08T20:57:14.583Z,2.80
2023-01-08T20:59:45.637Z,2.70
2023-01-08T21:02:13.944Z,2.70
2023-01-08T21:04:41.926Z,2.70
2023-01-08T21:07:09.222Z,2.80
2023-01-08T21:09:36.302Z,2.70
2023-01-08T21:12:05.944Z,2.70
2023-01-08T21:14:33.173Z,2.60
2023-01-08T21:17:03.999Z,2.60
2023-01-08T21:19:33.736Z,2.50
2023-01-08T21:22:01.988Z,2.60
2023-01-08T21:24:31.589Z,2.60
2023-01-08T21:26:59.345Z,2.60
2023-01-08T21:29:29.223Z,2.70
2023-01-08T21:32:00.182Z,2.70
2023-01-08T21:34:31.843Z,2.80
2023-01-08T21:37:02.540Z,2.70
2023-01-08T21:39:36.357Z,2.70
2023-01-08T21:42:25.521Z,2.70
2023-01-08T21:45:12.343Z,2.70
2023-01-08T21:47:41.265Z,2.70
2023-01-08T21:50:19.933Z,2.70
2023-01-08T21:53:09.606Z,2.70
2023-01-08T21:55:37.273Z,2.80
2023-01-08T21:58:05.961Z,2.70
2023-01-08T22:00:34.537Z,2.70
2023-01-08T22:03:01.514Z,2.70
2023-01-08T22:05:28.716Z,2.70
2023-01-08T22:07:59.456Z,2.60
2023-01-08T22:10:28.162Z,2.60
2023-01-08T22:12:55.051Z,2.60
2023-01-08T22:15:25.549Z,2.60
2023-01-08T22:17:53.093Z,2.60
2023-01-08T22:20:23.761Z,2.60
2023-01-08T22:22:51.145Z,2.60
2023-01-08T22:25:19.099Z,2.70
2023-01-08T22:27:48.974Z,2.60
2023-01-08T22:30:19.083Z,2.60
2023-01-08T22:32:49.021Z,2.60
2023-01-08T22:35:19.723Z,2.60
2023-01-08T22:37:47.247Z,2.60
2023-01-08T22:40:18.208Z,2.50
2023-01-08T22:42:45.527Z,2.50
2023-01-08T22:45:14.721Z,2.50
2023-01-08T22:47:44.652Z,2.50
2023-01-08T22:50:15.681Z,2.40
2023-01-08T22:52:43.167Z,2.50
2023-01-08T22:57:53.730Z,2.60
2023-01-08T23:00:23.652Z,2.60
2023-01-08T23:02:51.846Z,2.60
2023-01-08T23:05:21.723Z,2.70
2023-01-08T23:07:50.122Z,2.70
2023-01-08T23:10:20.591Z,2.70
2023-01-08T23:12:50.254Z,2.60
2023-01-08T23:15:21.127Z,2.70
2023-01-08T23:17:52.396Z,2.70
2023-01-08T23:20:23.840Z,2.70
2023-01-08T23:22:53.492Z,2.80
2023-01-08T23:25:24.138Z,2.70
2023-01-08T23:27:51.369Z,2.70
2023-01-08T23:30:19.916Z,2.70
2023-01-08T23:32:49.394Z,2.80
2023-01-08T23:35:17.094Z,2.90
2023-01-08T23:37:45.681Z,3.00
2023-01-08T23:40:15.795Z,2.90
2023-01-08T23:42:44.376Z,3.00
2023-01-08T23:45:14.473Z,3.00
2023-01-08T23:47:51.225Z,3.00
2023-01-08T23:50:20.197Z,3.00
2023-01-08T23:52:50.741Z,3.10
2023-01-08T23:55:19.402Z,3.20
2023-01-08T23:57:49.251Z,3.20
